sensor_id;sensor_type;location;lat;lon;timestamp;temperature;humidity
52621;DHT22;38515;53.160;6.990;2023-05-02T00:00:27;10.00;99.90
52621;DHT22;38515;53.160;6.990;2023-05-02T00:02:53;10.00;99.90
52621;DHT22;38515;53.160;6.990;2023-05-02T00:05:19;10.00;99.90
52621;DHT22;38515;53.160;6.990;2023-05-02T00:07:45;10.00;99.90
52621;DHT22;38515;53.160;6.990;2023-05-02T00:10:11;9.90;99.90
52621;DHT22;38515;53.160;6.990;2023-05-02T00:12:37;9.90;99.90
52621;DHT22;38515;53.160;6.990;2023-05-02T00:15:04;9.70;99.90
52621;DHT22;38515;53.160;6.990;2023-05-02T00:17:30;9.60;99.90
52621;DHT22;38515;53.160;6.990;2023-05-02T00:19:56;9.50;99.90
52621;DHT22;38515;53.160;6.990;2023-05-02T00:22:22;9.50;99.90
52621;DHT22;38515;53.160;6.990;2023-05-02T00:24:48;9.50;99.90
52621;DHT22;38515;53.160;6.990;2023-05-02T00:27:14;9.40;99.90
52621;DHT22;38515;53.160;6.990;2023-05-02T00:29:40;9.40;99.90
52621;DHT22;38515;53.160;6.990;2023-05-02T00:32:06;9.40;99.90
52621;DHT22;38515;53.160;6.990;2023-05-02T00:34:32;9.30;99.90
52621;DHT22;38515;53.160;6.990;2023-05-02T00:36:58;9.30;99.90
52621;DHT22;38515;53.160;6.990;2023-05-02T00:39:24;9.30;99.90
52621;DHT22;38515;53.160;6.990;2023-05-02T00:41:57;9.30;99.90
52621;DHT22;38515;53.160;6.990;2023-05-02T00:44:23;9.20;99.90
52621;DHT22;38515;53.160;6.990;2023-05-02T00:46:49;9.20;99.90
52621;DHT22;38515;53.160;6.990;2023-05-02T00:49:16;9.10;99.90
52621;DHT22;38515;53.160;6.990;2023-05-02T00:51:41;9.20;99.90
52621;DHT22;38515;53.160;6.990;2023-05-02T00:54:07;9.10;99.90
52621;DHT22;38515;53.160;6.990;2023-05-02T00:56:33;9.10;99.90
52621;DHT22;38515;53.160;6.990;2023-05-02T00:58:59;9.10;99.90
52621;DHT22;38515;53.160;6.990;2023-05-02T01:04:34;9.20;99.90
52621;DHT22;38515;53.160;6.990;2023-05-02T01:09:51;9.10;99.90
52621;DHT22;38515;53.160;6.990;2023-05-02T01:14:57;9.10;99.90
52621;DHT22;38515;53.160;6.990;2023-05-02T01:17:28;9.20;99.90
52621;DHT22;38515;53.160;6.990;2023-05-02T01:20:04;9.20;99.90
52621;DHT22;38515;53.160;6.990;2023-05-02T01:22:30;9.20;99.90
52621;DHT22;38515;53.160;6.990;2023-05-02T01:28:07;9.10;99.90
52621;DHT22;38515;53.160;6.990;2023-05-02T01:30:37;9.10;99.90
52621;DHT22;38515;53.160;6.990;2023-05-02T01:33:09;9.10;99.90
52621;DHT22;38515;53.160;6.990;2023-05-02T01:35:36;9.10;99.90
52621;DHT22;38515;53.160;6.990;2023-05-02T01:38:04;9.10;99.90
52621;DHT22;38515;53.160;6.990;2023-05-02T01:40:32;9.10;99.90
52621;DHT22;38515;53.160;6.990;2023-05-02T01:42:59;9.10;99.90
52621;DHT22;38515;53.160;6.990;2023-05-02T01:45:25;9.00;99.90
52621;DHT22;38515;53.160;6.990;2023-05-02T01:47:53;9.00;99.90
52621;DHT22;38515;53.160;6.990;2023-05-02T01:50:24;9.00;99.90
52621;DHT22;38515;53.160;6.990;2023-05-02T01:52:52;8.90;99.90
52621;DHT22;38515;53.160;6.990;2023-05-02T01:55:19;8.90;99.90
52621;DHT22;38515;53.160;6.990;2023-05-02T01:57:47;8.80;99.90
52621;DHT22;38515;53.160;6.990;2023-05-02T02:00:18;8.80;99.90
52621;DHT22;38515;53.160;6.990;2023-05-02T02:02:45;8.70;99.90
52621;DHT22;38515;53.160;6.990;2023-05-02T02:05:13;8.60;99.90
52621;DHT22;38515;53.160;6.990;2023-05-02T02:07:39;8.60;99.90
52621;DHT22;38515;53.160;6.990;2023-05-02T02:10:05;8.50;99.90
52621;DHT22;38515;53.160;6.990;2023-05-02T02:12:47;8.50;99.90
52621;DHT22;38515;53.160;6.990;2023-05-02T02:17:53;8.30;99.90
52621;DHT22;38515;53.160;6.990;2023-05-02T02:20:21;8.30;99.90
52621;DHT22;38515;53.160;6.990;2023-05-02T02:22:47;8.10;99.90
52621;DHT22;38515;53.160;6.990;2023-05-02T02:25:15;8.10;99.90
52621;DHT22;38515;53.160;6.990;2023-05-02T02:27:41;8.00;99.90
52621;DHT22;38515;53.160;6.990;2023-05-02T02:30:09;8.00;99.90
52621;DHT22;38515;53.160;6.990;2023-05-02T02:32:35;8.00;99.90
52621;DHT22;38515;53.160;6.990;2023-05-02T02:35:01;8.00;99.90
52621;DHT22;38515;53.160;6.990;2023-05-02T02:37:58;7.90;99.90
52621;DHT22;38515;53.160;6.990;2023-05-02T02:40:28;7.90;99.90
52621;DHT22;38515;53.160;6.990;2023-05-02T02:45:45;7.90;99.90
52621;DHT22;38515;53.160;6.990;2023-05-02T02:51:24;7.90;99.90
52621;DHT22;38515;53.160;6.990;2023-05-02T02:56:35;7.70;99.90
52621;DHT22;38515;53.160;6.990;2023-05-02T03:01:30;7.70;99.90
52621;DHT22;38515;53.160;6.990;2023-05-02T03:03:57;7.70;99.90
52621;DHT22;38515;53.160;6.990;2023-05-02T03:06:24;7.70;99.90
52621;DHT22;38515;53.160;6.990;2023-05-02T03:08:50;7.60;99.90
52621;DHT22;38515;53.160;6.990;2023-05-02T03:11:16;7.60;99.90
52621;DHT22;38515;53.160;6.990;2023-05-02T03:13:42;7.60;99.90
52621;DHT22;38515;53.160;6.990;2023-05-02T03:16:30;7.60;99.90
52621;DHT22;38515;53.160;6.990;2023-05-02T03:18:57;7.50;99.90
52621;DHT22;38515;53.160;6.990;2023-05-02T03:21:23;7.50;99.90
52621;DHT22;38515;53.160;6.990;2023-05-02T03:23:49;7.50;99.90
52621;DHT22;38515;53.160;6.990;2023-05-02T03:26:15;7.40;99.90
52621;DHT22;38515;53.160;6.990;2023-05-02T03:28:41;7.50;99.90
52621;DHT22;38515;53.160;6.990;2023-05-02T03:31:11;7.40;99.90
52621;DHT22;38515;53.160;6.990;2023-05-02T03:33:38;7.40;99.90
52621;DHT22;38515;53.160;6.990;2023-05-02T03:36:04;7.40;99.90
52621;DHT22;38515;53.160;6.990;2023-05-02T03:38:30;7.40;99.90
52621;DHT22;38515;53.160;6.990;2023-05-02T03:40:56;7.40;99.90
52621;DHT22;38515;53.160;6.990;2023-05-02T03:43:22;6.40;99.90
52621;DHT22;38515;53.160;6.990;2023-05-02T03:45:49;7.50;99.90
52621;DHT22;38515;53.160;6.990;2023-05-02T03:48:14;7.30;99.90
52621;DHT22;38515;53.160;6.990;2023-05-02T03:50:40;7.20;99.90
52621;DHT22;38515;53.160;6.990;2023-05-02T03:53:06;7.20;99.90
52621;DHT22;38515;53.160;6.990;2023-05-02T03:55:44;7.20;99.90
52621;DHT22;38515;53.160;6.990;2023-05-02T03:58:10;7.20;99.90
52621;DHT22;38515;53.160;6.990;2023-05-02T04:00:36;7.20;99.90
52621;DHT22;38515;53.160;6.990;2023-05-02T04:03:05;7.20;99.90
52621;DHT22;38515;53.160;6.990;2023-05-02T04:05:31;7.10;99.90
52621;DHT22;38515;53.160;6.990;2023-05-02T04:07:57;7.10;99.90
52621;DHT22;38515;53.160;6.990;2023-05-02T04:10:23;7.10;99.90
52621;DHT22;38515;53.160;6.990;2023-05-02T04:12:49;7.10;99.90
52621;DHT22;38515;53.160;6.990;2023-05-02T04:15:15;7.10;99.90
52621;DHT22;38515;53.160;6.990;2023-05-02T04:17:41;7.10;99.90
52621;DHT22;38515;53.160;6.990;2023-05-02T04:20:07;7.00;99.90
52621;DHT22;38515;53.160;6.990;2023-05-02T04:22:33;7.10;99.90
52621;DHT22;38515;53.160;6.990;2023-05-02T04:24:59;7.10;99.90
52621;DHT22;38515;53.160;6.990;2023-05-02T04:27:25;7.00;99.90
52621;DHT22;38515;53.160;6.990;2023-05-02T04:29:51;7.00;99.90
52621;DHT22;38515;53.160;6.990;2023-05-02T04:32:20;7.00;99.90
52621;DHT22;38515;53.160;6.990;2023-05-02T04:34:46;7.00;99.90
52621;DHT22;38515;53.160;6.990;2023-05-02T04:37:12;7.00;99.90
52621;DHT22;38515;53.160;6.990;2023-05-02T04:39:38;7.00;99.90
52621;DHT22;38515;53.160;6.990;2023-05-02T04:42:04;7.00;99.90
52621;DHT22;38515;53.160;6.990;2023-05-02T04:44:30;7.00;99.90
52621;DHT22;38515;53.160;6.990;2023-05-02T04:46:56;7.00;99.90
52621;DHT22;38515;53.160;6.990;2023-05-02T04:49:22;7.00;99.90
52621;DHT22;38515;53.160;6.990;2023-05-02T04:51:48;7.00;99.90
52621;DHT22;38515;53.160;6.990;2023-05-02T04:54:14;7.00;99.90
52621;DHT22;38515;53.160;6.990;2023-05-02T04:56:40;7.00;99.90
52621;DHT22;38515;53.160;6.990;2023-05-02T04:59:06;7.00;99.90
52621;DHT22;38515;53.160;6.990;2023-05-02T05:01:32;6.90;99.90
52621;DHT22;38515;53.160;6.990;2023-05-02T05:03:57;7.00;99.90
52621;DHT22;38515;53.160;6.990;2023-05-02T05:06:23;7.00;99.90
52621;DHT22;38515;53.160;6.990;2023-05-02T05:08:49;6.90;99.90
52621;DHT22;38515;53.160;6.990;2023-05-02T05:11:15;7.00;99.90
52621;DHT22;38515;53.160;6.990;2023-05-02T05:13:41;6.90;99.90
52621;DHT22;38515;53.160;6.990;2023-05-02T05:16:07;6.90;99.90
52621;DHT22;38515;53.160;6.990;2023-05-02T05:18:33;6.90;99.90
52621;DHT22;38515;53.160;6.990;2023-05-02T05:21:09;6.90;99.90
52621;DHT22;38515;53.160;6.990;2023-05-02T05:23:36;6.90;99.90
52621;DHT22;38515;53.160;6.990;2023-05-02T05:26:13;6.80;99.90
52621;DHT22;38515;53.160;6.990;2023-05-02T05:28:43;6.80;99.90
52621;DHT22;38515;53.160;6.990;2023-05-02T05:31:10;6.80;99.90
52621;DHT22;38515;53.160;6.990;2023-05-02T05:33:37;6.70;99.90
52621;DHT22;38515;53.160;6.990;2023-05-02T05:36:10;6.80;99.90
52621;DHT22;38515;53.160;6.990;2023-05-02T05:38:37;6.70;99.90
52621;DHT22;38515;53.160;6.990;2023-05-02T05:41:03;6.70;99.90
52621;DHT22;38515;53.160;6.990;2023-05-02T05:43:36;6.70;99.90
52621;DHT22;38515;53.160;6.990;2023-05-02T05:46:02;6.70;99.90
52621;DHT22;38515;53.160;6.990;2023-05-02T05:48:30;7.20;99.90
52621;DHT22;38515;53.160;6.990;2023-05-02T05:50:56;6.70;99.90
52621;DHT22;38515;53.160;6.990;2023-05-02T05:53:22;6.70;99.90
52621;DHT22;38515;53.160;6.990;2023-05-02T05:55:48;6.80;99.90
52621;DHT22;38515;53.160;6.990;2023-05-02T05:58:14;6.80;99.90
52621;DHT22;38515;53.160;6.990;2023-05-02T06:00:40;6.80;99.90
52621;DHT22;38515;53.160;6.990;2023-05-02T06:03:06;6.80;99.90
52621;DHT22;38515;53.160;6.990;2023-05-02T06:05:32;6.90;99.90
52621;DHT22;38515;53.160;6.990;2023-05-02T06:07:58;6.90;99.90
52621;DHT22;38515;53.160;6.990;2023-05-02T06:10:24;6.90;99.90
52621;DHT22;38515;53.160;6.990;2023-05-02T06:12:50;7.00;99.90
52621;DHT22;38515;53.160;6.990;2023-05-02T06:15:16;6.70;99.90
52621;DHT22;38515;53.160;6.990;2023-05-02T06:17:43;7.00;99.90
52621;DHT22;38515;53.160;6.990;2023-05-02T06:20:09;7.10;99.90
52621;DHT22;38515;53.160;6.990;2023-05-02T06:22:35;7.10;99.90
52621;DHT22;38515;53.160;6.990;2023-05-02T06:25:01;7.30;99.90
52621;DHT22;38515;53.160;6.990;2023-05-02T06:27:27;7.20;99.90
52621;DHT22;38515;53.160;6.990;2023-05-02T06:29:53;7.20;99.90
52621;DHT22;38515;53.160;6.990;2023-05-02T06:32:19;7.20;99.90
52621;DHT22;38515;53.160;6.990;2023-05-02T06:34:46;7.30;99.90
52621;DHT22;38515;53.160;6.990;2023-05-02T06:37:11;7.30;99.90
52621;DHT22;38515;53.160;6.990;2023-05-02T06:39:38;7.30;99.90
52621;DHT22;38515;53.160;6.990;2023-05-02T06:42:03;7.40;99.90
52621;DHT22;38515;53.160;6.990;2023-05-02T06:44:29;7.50;99.90
52621;DHT22;38515;53.160;6.990;2023-05-02T06:46:55;7.60;99.90
52621;DHT22;38515;53.160;6.990;2023-05-02T06:49:21;7.60;99.90
52621;DHT22;38515;53.160;6.990;2023-05-02T06:51:47;7.60;99.90
52621;DHT22;38515;53.160;6.990;2023-05-02T06:54:14;7.60;99.90
52621;DHT22;38515;53.160;6.990;2023-05-02T06:56:41;7.60;99.90
52621;DHT22;38515;53.160;6.990;2023-05-02T06:59:07;7.60;99.90
52621;DHT22;38515;53.160;6.990;2023-05-02T07:01:32;7.60;99.90
52621;DHT22;38515;53.160;6.990;2023-05-02T07:03:59;7.70;99.90
52621;DHT22;38515;53.160;6.990;2023-05-02T07:06:25;7.70;99.90
52621;DHT22;38515;53.160;6.990;2023-05-02T07:08:52;7.70;99.90
52621;DHT22;38515;53.160;6.990;2023-05-02T07:11:18;7.60;99.90
52621;DHT22;38515;53.160;6.990;2023-05-02T07:13:43;7.60;99.90
52621;DHT22;38515;53.160;6.990;2023-05-02T07:16:10;7.20;99.90
52621;DHT22;38515;53.160;6.990;2023-05-02T07:18:36;7.70;99.90
52621;DHT22;38515;53.160;6.990;2023-05-02T07:21:02;7.80;99.90
52621;DHT22;38515;53.160;6.990;2023-05-02T07:23:28;7.80;99.90
52621;DHT22;38515;53.160;6.990;2023-05-02T07:25:54;7.90;99.90
52621;DHT22;38515;53.160;6.990;2023-05-02T07:28:20;7.90;99.90
52621;DHT22;38515;53.160;6.990;2023-05-02T07:30:45;8.00;99.90
52621;DHT22;38515;53.160;6.990;2023-05-02T07:33:13;8.10;99.90
52621;DHT22;38515;53.160;6.990;2023-05-02T07:35:39;8.10;99.90
52621;DHT22;38515;53.160;6.990;2023-05-02T07:38:05;8.00;99.90
52621;DHT22;38515;53.160;6.990;2023-05-02T07:40:31;8.10;99.90
52621;DHT22;38515;53.160;6.990;2023-05-02T07:42:59;8.10;99.90
52621;DHT22;38515;53.160;6.990;2023-05-02T07:45:25;8.10;99.90
52621;DHT22;38515;53.160;6.990;2023-05-02T07:47:51;8.30;99.90
52621;DHT22;38515;53.160;6.990;2023-05-02T07:50:17;8.30;99.90
52621;DHT22;38515;53.160;6.990;2023-05-02T07:52:43;8.40;99.90
52621;DHT22;38515;53.160;6.990;2023-05-02T07:55:09;8.50;99.90
52621;DHT22;38515;53.160;6.990;2023-05-02T07:57:34;8.50;99.90
52621;DHT22;38515;53.160;6.990;2023-05-02T08:00:00;8.60;99.90
52621;DHT22;38515;53.160;6.990;2023-05-02T08:02:26;8.10;99.90
52621;DHT22;38515;53.160;6.990;2023-05-02T08:04:53;8.70;99.90
52621;DHT22;38515;53.160;6.990;2023-05-02T08:07:19;8.70;99.90
52621;DHT22;38515;53.160;6.990;2023-05-02T08:09:45;8.70;99.90
52621;DHT22;38515;53.160;6.990;2023-05-02T08:12:11;8.70;99.90
52621;DHT22;38515;53.160;6.990;2023-05-02T08:14:37;8.70;99.90
52621;DHT22;38515;53.160;6.990;2023-05-02T08:17:03;8.80;99.90
52621;DHT22;38515;53.160;6.990;2023-05-02T08:19:29;8.70;99.90
52621;DHT22;38515;53.160;6.990;2023-05-02T08:21:55;8.70;99.90
52621;DHT22;38515;53.160;6.990;2023-05-02T08:24:21;8.80;99.90
52621;DHT22;38515;53.160;6.990;2023-05-02T08:26:47;8.80;99.90
52621;DHT22;38515;53.160;6.990;2023-05-02T08:29:13;8.70;99.90
52621;DHT22;38515;53.160;6.990;2023-05-02T08:31:42;8.70;99.90
52621;DHT22;38515;53.160;6.990;2023-05-02T08:34:08;8.70;99.90
52621;DHT22;38515;53.160;6.990;2023-05-02T08:36:34;8.80;99.90
52621;DHT22;38515;53.160;6.990;2023-05-02T08:38:59;8.90;99.90
52621;DHT22;38515;53.160;6.990;2023-05-02T08:41:28;9.20;99.90
52621;DHT22;38515;53.160;6.990;2023-05-02T08:43:55;9.20;99.90
52621;DHT22;38515;53.160;6.990;2023-05-02T08:46:22;9.20;99.90
52621;DHT22;38515;53.160;6.990;2023-05-02T08:48:49;9.30;99.90
52621;DHT22;38515;53.160;6.990;2023-05-02T08:51:17;9.40;99.90
52621;DHT22;38515;53.160;6.990;2023-05-02T08:53:44;9.50;99.90
52621;DHT22;38515;53.160;6.990;2023-05-02T08:56:11;9.70;99.90
52621;DHT22;38515;53.160;6.990;2023-05-02T08:58:38;9.70;99.90
52621;DHT22;38515;53.160;6.990;2023-05-02T09:01:23;9.70;99.90
52621;DHT22;38515;53.160;6.990;2023-05-02T09:03:52;9.70;99.80
52621;DHT22;38515;53.160;6.990;2023-05-02T09:06:20;9.50;99.90
52621;DHT22;38515;53.160;6.990;2023-05-02T09:08:50;9.30;99.90
52621;DHT22;38515;53.160;6.990;2023-05-02T09:11:19;9.20;99.90
52621;DHT22;38515;53.160;6.990;2023-05-02T09:13:50;9.20;99.90
52621;DHT22;38515;53.160;6.990;2023-05-02T09:16:24;9.10;99.90
52621;DHT22;38515;53.160;6.990;2023-05-02T09:18:56;9.20;99.90
52621;DHT22;38515;53.160;6.990;2023-05-02T09:21:34;9.30;99.90
52621;DHT22;38515;53.160;6.990;2023-05-02T09:24:01;9.30;99.90
52621;DHT22;38515;53.160;6.990;2023-05-02T09:26:39;9.30;99.90
52621;DHT22;38515;53.160;6.990;2023-05-02T09:29:05;9.30;99.90
52621;DHT22;38515;53.160;6.990;2023-05-02T09:31:33;9.30;99.90
52621;DHT22;38515;53.160;6.990;2023-05-02T09:34:13;9.20;99.90
52621;DHT22;38515;53.160;6.990;2023-05-02T09:36:46;9.20;99.50
52621;DHT22;38515;53.160;6.990;2023-05-02T09:39:17;9.10;99.90
52621;DHT22;38515;53.160;6.990;2023-05-02T09:41:45;9.20;99.90
52621;DHT22;38515;53.160;6.990;2023-05-02T09:44:16;9.30;99.90
52621;DHT22;38515;53.160;6.990;2023-05-02T09:46:47;9.50;99.90
52621;DHT22;38515;53.160;6.990;2023-05-02T09:49:14;9.80;99.90
52621;DHT22;38515;53.160;6.990;2023-05-02T09:51:44;10.00;99.90
52621;DHT22;38515;53.160;6.990;2023-05-02T09:54:11;9.90;99.20
52621;DHT22;38515;53.160;6.990;2023-05-02T09:56:54;9.80;99.50
52621;DHT22;38515;53.160;6.990;2023-05-02T09:59:21;9.70;98.70
52621;DHT22;38515;53.160;6.990;2023-05-02T10:02:06;9.70;99.90
52621;DHT22;38515;53.160;6.990;2023-05-02T10:04:35;9.60;99.00
52621;DHT22;38515;53.160;6.990;2023-05-02T10:07:01;9.50;99.90
52621;DHT22;38515;53.160;6.990;2023-05-02T10:09:29;9.40;99.90
52621;DHT22;38515;53.160;6.990;2023-05-02T10:12:00;9.40;99.90
52621;DHT22;38515;53.160;6.990;2023-05-02T10:14:36;9.40;99.90
52621;DHT22;38515;53.160;6.990;2023-05-02T10:17:39;9.40;99.90
52621;DHT22;38515;53.160;6.990;2023-05-02T10:20:08;9.30;99.90
52621;DHT22;38515;53.160;6.990;2023-05-02T10:22:36;9.60;99.90
52621;DHT22;38515;53.160;6.990;2023-05-02T10:25:03;9.20;99.90
52621;DHT22;38515;53.160;6.990;2023-05-02T10:27:29;9.20;99.90
52621;DHT22;38515;53.160;6.990;2023-05-02T10:29:58;9.10;99.90
52621;DHT22;38515;53.160;6.990;2023-05-02T10:32:27;9.10;99.90
52621;DHT22;38515;53.160;6.990;2023-05-02T10:34:56;9.20;99.90
52621;DHT22;38515;53.160;6.990;2023-05-02T10:37:28;9.20;99.90
52621;DHT22;38515;53.160;6.990;2023-05-02T10:39:54;9.30;99.90
52621;DHT22;38515;53.160;6.990;2023-05-02T10:42:20;9.30;99.90
52621;DHT22;38515;53.160;6.990;2023-05-02T10:44:46;9.50;99.90
52621;DHT22;38515;53.160;6.990;2023-05-02T10:47:25;9.60;99.90
52621;DHT22;38515;53.160;6.990;2023-05-02T10:50:00;9.80;99.90
52621;DHT22;38515;53.160;6.990;2023-05-02T10:52:33;9.90;99.90
52621;DHT22;38515;53.160;6.990;2023-05-02T11:00:32;9.50;99.90
52621;DHT22;38515;53.160;6.990;2023-05-02T11:02:59;9.40;99.90
52621;DHT22;38515;53.160;6.990;2023-05-02T11:05:26;9.30;99.90
52621;DHT22;38515;53.160;6.990;2023-05-02T11:10:56;9.30;99.90
52621;DHT22;38515;53.160;6.990;2023-05-02T11:13:48;9.40;99.90
52621;DHT22;38515;53.160;6.990;2023-05-02T11:16:14;9.60;99.90
52621;DHT22;38515;53.160;6.990;2023-05-02T11:18:59;9.90;99.90
52621;DHT22;38515;53.160;6.990;2023-05-02T11:21:29;10.30;99.20
52621;DHT22;38515;53.160;6.990;2023-05-02T11:29:58;10.80;99.90
52621;DHT22;38515;53.160;6.990;2023-05-02T11:35:18;10.40;99.60
52621;DHT22;38515;53.160;6.990;2023-05-02T11:38:08;10.20;98.70
52621;DHT22;38515;53.160;6.990;2023-05-02T11:40:34;10.10;99.10
52621;DHT22;38515;53.160;6.990;2023-05-02T11:43:00;10.30;99.90
52621;DHT22;38515;53.160;6.990;2023-05-02T11:45:36;10.40;99.90
52621;DHT22;38515;53.160;6.990;2023-05-02T11:48:07;10.40;99.20
52621;DHT22;38515;53.160;6.990;2023-05-02T11:53:13;10.20;99.10
52621;DHT22;38515;53.160;6.990;2023-05-02T11:55:55;10.10;99.60
52621;DHT22;38515;53.160;6.990;2023-05-02T11:58:27;10.00;99.70
52621;DHT22;38515;53.160;6.990;2023-05-02T12:00:58;9.90;99.90
52621;DHT22;38515;53.160;6.990;2023-05-02T12:03:30;9.90;99.90
52621;DHT22;38515;53.160;6.990;2023-05-02T12:05:57;9.90;99.90
52621;DHT22;38515;53.160;6.990;2023-05-02T12:08:33;9.80;99.90
52621;DHT22;38515;53.160;6.990;2023-05-02T12:10:58;9.70;99.90
52621;DHT22;38515;53.160;6.990;2023-05-02T12:13:25;9.70;99.90
52621;DHT22;38515;53.160;6.990;2023-05-02T12:15:53;9.70;99.90
52621;DHT22;38515;53.160;6.990;2023-05-02T12:18:21;9.60;99.90
52621;DHT22;38515;53.160;6.990;2023-05-02T12:20:51;9.60;99.90
52621;DHT22;38515;53.160;6.990;2023-05-02T12:23:21;9.70;99.90
52621;DHT22;38515;53.160;6.990;2023-05-02T12:25:48;9.80;99.90
52621;DHT22;38515;53.160;6.990;2023-05-02T12:28:16;10.00;99.90
52621;DHT22;38515;53.160;6.990;2023-05-02T12:30:43;10.20;99.90
52621;DHT22;38515;53.160;6.990;2023-05-02T12:33:09;10.40;98.70
52621;DHT22;38515;53.160;6.990;2023-05-02T12:35:35;10.40;98.80
52621;DHT22;38515;53.160;6.990;2023-05-02T12:38:18;10.40;98.70
52621;DHT22;38515;53.160;6.990;2023-05-02T12:40:52;10.30;98.20
52621;DHT22;38515;53.160;6.990;2023-05-02T12:43:19;10.30;98.90
52621;DHT22;38515;53.160;6.990;2023-05-02T12:45:46;10.30;98.60
52621;DHT22;38515;53.160;6.990;2023-05-02T12:48:23;10.30;98.20
52621;DHT22;38515;53.160;6.990;2023-05-02T12:50:51;10.40;97.90
52621;DHT22;38515;53.160;6.990;2023-05-02T12:53:21;10.40;98.50
52621;DHT22;38515;53.160;6.990;2023-05-02T12:56:02;10.40;98.70
52621;DHT22;38515;53.160;6.990;2023-05-02T12:58:29;10.30;98.60
52621;DHT22;38515;53.160;6.990;2023-05-02T13:00:55;10.40;99.00
52621;DHT22;38515;53.160;6.990;2023-05-02T13:03:21;10.50;98.60
52621;DHT22;38515;53.160;6.990;2023-05-02T13:05:47;10.50;98.10
52621;DHT22;38515;53.160;6.990;2023-05-02T13:08:12;10.40;98.20
52621;DHT22;38515;53.160;6.990;2023-05-02T13:10:38;10.30;98.00
52621;DHT22;38515;53.160;6.990;2023-05-02T13:13:05;10.30;98.40
52621;DHT22;38515;53.160;6.990;2023-05-02T13:15:31;10.30;98.30
52621;DHT22;38515;53.160;6.990;2023-05-02T13:17:57;10.40;98.30
52621;DHT22;38515;53.160;6.990;2023-05-02T13:20:23;10.50;98.60
52621;DHT22;38515;53.160;6.990;2023-05-02T13:22:49;10.60;98.30
52621;DHT22;38515;53.160;6.990;2023-05-02T13:25:15;10.60;98.80
52621;DHT22;38515;53.160;6.990;2023-05-02T13:27:40;10.40;99.90
52621;DHT22;38515;53.160;6.990;2023-05-02T13:30:07;10.20;99.90
52621;DHT22;38515;53.160;6.990;2023-05-02T13:32:33;10.10;99.90
52621;DHT22;38515;53.160;6.990;2023-05-02T13:35:00;10.00;99.90
52621;DHT22;38515;53.160;6.990;2023-05-02T13:37:26;10.00;99.90
52621;DHT22;38515;53.160;6.990;2023-05-02T13:39:53;10.10;99.90
52621;DHT22;38515;53.160;6.990;2023-05-02T13:42:19;10.00;99.90
52621;DHT22;38515;53.160;6.990;2023-05-02T13:44:45;10.00;99.90
52621;DHT22;38515;53.160;6.990;2023-05-02T13:47:11;10.00;99.90
52621;DHT22;38515;53.160;6.990;2023-05-02T13:49:36;10.10;99.90
52621;DHT22;38515;53.160;6.990;2023-05-02T13:52:02;10.20;99.90
52621;DHT22;38515;53.160;6.990;2023-05-02T13:54:28;10.20;99.90
52621;DHT22;38515;53.160;6.990;2023-05-02T13:56:54;10.20;99.90
52621;DHT22;38515;53.160;6.990;2023-05-02T13:59:20;10.20;99.90
52621;DHT22;38515;53.160;6.990;2023-05-02T14:01:46;10.20;99.90
52621;DHT22;38515;53.160;6.990;2023-05-02T14:04:12;10.20;99.90
52621;DHT22;38515;53.160;6.990;2023-05-02T14:06:38;10.20;99.90
52621;DHT22;38515;53.160;6.990;2023-05-02T14:09:04;10.10;99.90
52621;DHT22;38515;53.160;6.990;2023-05-02T14:11:30;10.00;99.90
52621;DHT22;38515;53.160;6.990;2023-05-02T14:13:55;9.90;99.90
52621;DHT22;38515;53.160;6.990;2023-05-02T14:16:23;9.90;99.90
52621;DHT22;38515;53.160;6.990;2023-05-02T14:18:48;9.80;99.90
52621;DHT22;38515;53.160;6.990;2023-05-02T14:21:15;9.80;99.90
52621;DHT22;38515;53.160;6.990;2023-05-02T14:23:41;9.90;99.90
52621;DHT22;38515;53.160;6.990;2023-05-02T14:26:07;9.80;99.90
52621;DHT22;38515;53.160;6.990;2023-05-02T14:28:33;9.80;99.90
52621;DHT22;38515;53.160;6.990;2023-05-02T14:30:59;9.80;99.90
52621;DHT22;38515;53.160;6.990;2023-05-02T14:33:25;9.90;99.90
52621;DHT22;38515;53.160;6.990;2023-05-02T14:35:51;9.80;99.90
52621;DHT22;38515;53.160;6.990;2023-05-02T14:38:17;9.80;99.90
52621;DHT22;38515;53.160;6.990;2023-05-02T14:40:43;9.80;99.90
52621;DHT22;38515;53.160;6.990;2023-05-02T14:43:09;9.70;99.90
52621;DHT22;38515;53.160;6.990;2023-05-02T14:45:36;9.70;99.90
52621;DHT22;38515;53.160;6.990;2023-05-02T14:48:02;9.70;99.90
52621;DHT22;38515;53.160;6.990;2023-05-02T14:50:28;9.70;99.90
52621;DHT22;38515;53.160;6.990;2023-05-02T14:52:54;9.80;99.90
52621;DHT22;38515;53.160;6.990;2023-05-02T14:55:19;9.80;99.90
52621;DHT22;38515;53.160;6.990;2023-05-02T14:57:45;10.70;99.90
52621;DHT22;38515;53.160;6.990;2023-05-02T15:00:12;9.90;99.90
52621;DHT22;38515;53.160;6.990;2023-05-02T15:02:38;9.90;99.90
52621;DHT22;38515;53.160;6.990;2023-05-02T15:05:04;9.90;99.90
52621;DHT22;38515;53.160;6.990;2023-05-02T15:07:32;9.80;99.90
52621;DHT22;38515;53.160;6.990;2023-05-02T15:09:58;9.70;99.90
52621;DHT22;38515;53.160;6.990;2023-05-02T15:12:24;9.70;99.90
52621;DHT22;38515;53.160;6.990;2023-05-02T15:14:50;9.60;99.90
52621;DHT22;38515;53.160;6.990;2023-05-02T15:17:16;9.60;99.90
52621;DHT22;38515;53.160;6.990;2023-05-02T15:19:42;9.50;99.90
52621;DHT22;38515;53.160;6.990;2023-05-02T15:22:08;9.50;99.90
52621;DHT22;38515;53.160;6.990;2023-05-02T15:24:35;9.60;99.90
52621;DHT22;38515;53.160;6.990;2023-05-02T15:27:01;9.60;99.90
52621;DHT22;38515;53.160;6.990;2023-05-02T15:29:28;10.70;99.90
52621;DHT22;38515;53.160;6.990;2023-05-02T15:31:54;9.70;99.90
52621;DHT22;38515;53.160;6.990;2023-05-02T15:34:20;9.70;99.90
52621;DHT22;38515;53.160;6.990;2023-05-02T15:36:46;9.70;99.90
52621;DHT22;38515;53.160;6.990;2023-05-02T15:39:11;9.80;99.90
52621;DHT22;38515;53.160;6.990;2023-05-02T15:41:37;9.90;99.90
52621;DHT22;38515;53.160;6.990;2023-05-02T15:44:03;9.90;99.90
52621;DHT22;38515;53.160;6.990;2023-05-02T15:46:29;9.90;99.90
52621;DHT22;38515;53.160;6.990;2023-05-02T15:48:55;10.00;99.90
52621;DHT22;38515;53.160;6.990;2023-05-02T15:51:21;10.10;99.90
52621;DHT22;38515;53.160;6.990;2023-05-02T15:53:47;10.20;99.90
52621;DHT22;38515;53.160;6.990;2023-05-02T15:56:16;10.30;99.90
52621;DHT22;38515;53.160;6.990;2023-05-02T15:58:42;10.20;99.90
52621;DHT22;38515;53.160;6.990;2023-05-02T16:01:08;10.10;99.90
52621;DHT22;38515;53.160;6.990;2023-05-02T16:03:34;9.90;99.90
52621;DHT22;38515;53.160;6.990;2023-05-02T16:06:00;9.90;99.90
52621;DHT22;38515;53.160;6.990;2023-05-02T16:08:26;9.80;99.90
52621;DHT22;38515;53.160;6.990;2023-05-02T16:10:52;9.70;99.90
52621;DHT22;38515;53.160;6.990;2023-05-02T16:13:19;9.70;99.90
52621;DHT22;38515;53.160;6.990;2023-05-02T16:15:45;9.70;99.90
52621;DHT22;38515;53.160;6.990;2023-05-02T16:18:13;9.70;99.90
52621;DHT22;38515;53.160;6.990;2023-05-02T16:20:39;9.60;99.90
52621;DHT22;38515;53.160;6.990;2023-05-02T16:23:06;9.60;99.90
52621;DHT22;38515;53.160;6.990;2023-05-02T16:25:32;9.60;99.90
52621;DHT22;38515;53.160;6.990;2023-05-02T16:27:59;9.50;99.90
52621;DHT22;38515;53.160;6.990;2023-05-02T16:30:25;9.50;99.90